sensor_id;sensor_type;location;lat;lon;timestamp;temperature;humidity
20773;DHT22;10546;50.674;4.616;2024-01-15T06:10:38;2.20;99.90
20773;DHT22;10546;50.674;4.616;2024-01-15T06:13:04;2.30;99.90
20773;DHT22;10546;50.674;4.616;2024-01-15T06:15:30;2.30;99.90
20773;DHT22;10546;50.674;4.616;2024-01-15T06:17:56;2.10;99.90
20773;DHT22;10546;50.674;4.616;2024-01-15T06:20:22;2.20;99.90
20773;DHT22;10546;50.674;4.616;2024-01-15T06:22:47;2.20;99.90
20773;DHT22;10546;50.674;4.616;2024-01-15T06:25:13;2.00;99.90
20773;DHT22;10546;50.674;4.616;2024-01-15T06:27:39;2.00;99.90
20773;DHT22;10546;50.674;4.616;2024-01-15T06:30:05;1.90;99.90
20773;DHT22;10546;50.674;4.616;2024-01-15T06:32:31;1.80;99.90
20773;DHT22;10546;50.674;4.616;2024-01-15T06:34:56;1.90;99.90
20773;DHT22;10546;50.674;4.616;2024-01-15T06:37:22;1.90;99.90
20773;DHT22;10546;50.674;4.616;2024-01-15T06:39:48;1.70;99.90
20773;DHT22;10546;50.674;4.616;2024-01-15T06:42:13;1.80;99.90
20773;DHT22;10546;50.674;4.616;2024-01-15T06:44:39;1.80;99.90
20773;DHT22;10546;50.674;4.616;2024-01-15T06:47:05;1.70;99.90
20773;DHT22;10546;50.674;4.616;2024-01-15T06:49:31;1.80;99.90
20773;DHT22;10546;50.674;4.616;2024-01-15T06:51:56;1.80;99.90
20773;DHT22;10546;50.674;4.616;2024-01-15T06:54:22;1.90;99.90
20773;DHT22;10546;50.674;4.616;2024-01-15T06:56:49;1.90;99.90
20773;DHT22;10546;50.674;4.616;2024-01-15T06:59:15;1.70;99.90
20773;DHT22;10546;50.674;4.616;2024-01-15T07:01:41;1.70;99.90
20773;DHT22;10546;50.674;4.616;2024-01-15T07:04:07;1.50;99.90
20773;DHT22;10546;50.674;4.616;2024-01-15T07:06:33;1.50;99.90
20773;DHT22;10546;50.674;4.616;2024-01-15T07:08:59;1.50;99.90
20773;DHT22;10546;50.674;4.616;2024-01-15T07:11:24;1.50;99.90
20773;DHT22;10546;50.674;4.616;2024-01-15T07:13:50;1.40;99.90
20773;DHT22;10546;50.674;4.616;2024-01-15T07:16:16;1.40;99.90
20773;DHT22;10546;50.674;4.616;2024-01-15T07:18:41;1.40;99.90
20773;DHT22;10546;50.674;4.616;2024-01-15T07:21:07;1.30;99.90
20773;DHT22;10546;50.674;4.616;2024-01-15T07:23:32;1.40;99.90
20773;DHT22;10546;50.674;4.616;2024-01-15T07:25:58;1.50;99.90
20773;DHT22;10546;50.674;4.616;2024-01-15T07:28:24;1.50;99.90
20773;DHT22;10546;50.674;4.616;2024-01-15T07:30:49;1.60;99.90
20773;DHT22;10546;50.674;4.616;2024-01-15T07:33:15;1.50;99.90
20773;DHT22;10546;50.674;4.616;2024-01-15T07:35:41;1.50;99.90
20773;DHT22;10546;50.674;4.616;2024-01-15T07:38:07;1.50;99.90
20773;DHT22;10546;50.674;4.616;2024-01-15T07:40:32;1.50;99.90
20773;DHT22;10546;50.674;4.616;2024-01-15T07:42:58;1.50;99.90
20773;DHT22;10546;50.674;4.616;2024-01-15T07:45:24;1.50;99.90
20773;DHT22;10546;50.674;4.616;2024-01-15T07:47:49;1.50;99.90
20773;DHT22;10546;50.674;4.616;2024-01-15T07:50:15;1.50;99.90
20773;DHT22;10546;50.674;4.616;2024-01-15T07:52:41;1.50;99.90
20773;DHT22;10546;50.674;4.616;2024-01-15T07:55:07;1.60;99.90
20773;DHT22;10546;50.674;4.616;2024-01-15T07:57:33;1.50;99.90
20773;DHT22;10546;50.674;4.616;2024-01-15T07:59:59;1.60;99.90
20773;DHT22;10546;50.674;4.616;2024-01-15T08:02:25;1.70;99.90
20773;DHT22;10546;50.674;4.616;2024-01-15T08:04:50;1.70;99.90
20773;DHT22;10546;50.674;4.616;2024-01-15T08:07:16;1.70;99.90
20773;DHT22;10546;50.674;4.616;2024-01-15T08:09:43;1.70;99.90
20773;DHT22;10546;50.674;4.616;2024-01-15T08:12:09;1.60;99.90
20773;DHT22;10546;50.674;4.616;2024-01-15T08:14:35;1.60;99.90
20773;DHT22;10546;50.674;4.616;2024-01-15T08:17:01;1.60;99.90
20773;DHT22;10546;50.674;4.616;2024-01-15T08:19:27;1.50;99.90
20773;DHT22;10546;50.674;4.616;2024-01-15T08:21:52;1.50;99.90
20773;DHT22;10546;50.674;4.616;2024-01-15T08:24:18;1.50;99.90
20773;DHT22;10546;50.674;4.616;2024-01-15T08:26:44;1.50;99.90
20773;DHT22;10546;50.674;4.616;2024-01-15T08:29:10;1.50;99.90
20773;DHT22;10546;50.674;4.616;2024-01-15T08:31:36;1.40;99.90
20773;DHT22;10546;50.674;4.616;2024-01-15T08:34:02;1.40;99.90
20773;DHT22;10546;50.674;4.616;2024-01-15T08:36:27;1.30;99.90
20773;DHT22;10546;50.674;4.616;2024-01-15T08:38:55;1.40;99.90
20773;DHT22;10546;50.674;4.616;2024-01-15T08:41:20;1.60;99.90
20773;DHT22;10546;50.674;4.616;2024-01-15T08:43:46;1.60;99.90
20773;DHT22;10546;50.674;4.616;2024-01-15T08:46:12;1.60;99.90
20773;DHT22;10546;50.674;4.616;2024-01-15T08:48:37;1.80;99.90
20773;DHT22;10546;50.674;4.616;2024-01-15T08:51:03;2.10;99.90
20773;DHT22;10546;50.674;4.616;2024-01-15T08:53:29;2.40;99.90
20773;DHT22;10546;50.674;4.616;2024-01-15T08:55:55;2.80;99.90
20773;DHT22;10546;50.674;4.616;2024-01-15T08:58:21;3.20;99.90
20773;DHT22;10546;50.674;4.616;2024-01-15T09:00:46;3.70;99.90
20773;DHT22;10546;50.674;4.616;2024-01-15T09:03:12;4.40;99.90
20773;DHT22;10546;50.674;4.616;2024-01-15T09:05:37;4.10;99.90
20773;DHT22;10546;50.674;4.616;2024-01-15T09:08:03;4.10;99.90
20773;DHT22;10546;50.674;4.616;2024-01-15T09:10:29;4.90;99.90
20773;DHT22;10546;50.674;4.616;2024-01-15T09:12:55;5.70;99.90
20773;DHT22;10546;50.674;4.616;2024-01-15T09:15:21;6.40;99.90
20773;DHT22;10546;50.674;4.616;2024-01-15T09:17:46;6.90;99.90
20773;DHT22;10546;50.674;4.616;2024-01-15T09:20:12;7.40;99.90
20773;DHT22;10546;50.674;4.616;2024-01-15T09:22:38;7.90;99.90
20773;DHT22;10546;50.674;4.616;2024-01-15T09:25:07;7.90;99.90
20773;DHT22;10546;50.674;4.616;2024-01-15T09:27:33;7.10;99.90
20773;DHT22;10546;50.674;4.616;2024-01-15T09:29:59;6.20;99.90
20773;DHT22;10546;50.674;4.616;2024-01-15T09:32:25;6.10;99.90
20773;DHT22;10546;50.674;4.616;2024-01-15T09:34:50;6.00;99.90
20773;DHT22;10546;50.674;4.616;2024-01-15T09:37:16;6.00;99.90
20773;DHT22;10546;50.674;4.616;2024-01-15T09:39:42;5.70;99.90
20773;DHT22;10546;50.674;4.616;2024-01-15T09:42:08;5.20;99.90
20773;DHT22;10546;50.674;4.616;2024-01-15T09:44:34;5.00;99.90
20773;DHT22;10546;50.674;4.616;2024-01-15T09:47:00;5.10;99.90
20773;DHT22;10546;50.674;4.616;2024-01-15T09:49:26;5.90;99.90
20773;DHT22;10546;50.674;4.616;2024-01-15T09:51:54;6.50;99.90
20773;DHT22;10546;50.674;4.616;2024-01-15T09:54:20;7.50;99.90
20773;DHT22;10546;50.674;4.616;2024-01-15T09:56:47;8.10;99.90
20773;DHT22;10546;50.674;4.616;2024-01-15T09:59:17;8.30;99.90
20773;DHT22;10546;50.674;4.616;2024-01-15T10:01:44;9.10;99.90
20773;DHT22;10546;50.674;4.616;2024-01-15T10:04:14;8.40;99.90
20773;DHT22;10546;50.674;4.616;2024-01-15T10:06:47;8.40;99.90
20773;DHT22;10546;50.674;4.616;2024-01-15T10:09:15;9.00;99.90
20773;DHT22;10546;50.674;4.616;2024-01-15T10:11:44;9.20;99.90
20773;DHT22;10546;50.674;4.616;2024-01-15T10:14:11;10.20;99.90
20773;DHT22;10546;50.674;4.616;2024-01-15T10:16:40;10.50;99.90
20773;DHT22;10546;50.674;4.616;2024-01-15T10:19:07;10.60;99.90
20773;DHT22;10546;50.674;4.616;2024-01-15T10:21:33;10.30;99.90
20773;DHT22;10546;50.674;4.616;2024-01-15T10:24:00;11.20;99.90
20773;DHT22;10546;50.674;4.616;2024-01-15T10:26:26;11.10;99.90
20773;DHT22;10546;50.674;4.616;2024-01-15T10:28:52;10.80;99.90
20773;DHT22;10546;50.674;4.616;2024-01-15T10:31:18;11.20;99.90
20773;DHT22;10546;50.674;4.616;2024-01-15T10:33:45;10.30;99.90
20773;DHT22;10546;50.674;4.616;2024-01-15T10:36:12;10.10;99.90
20773;DHT22;10546;50.674;4.616;2024-01-15T10:38:38;10.30;99.90
20773;DHT22;10546;50.674;4.616;2024-01-15T10:41:04;10.00;99.90
20773;DHT22;10546;50.674;4.616;2024-01-15T10:43:29;8.80;99.90
20773;DHT22;10546;50.674;4.616;2024-01-15T10:46:11;7.90;99.90
20773;DHT22;10546;50.674;4.616;2024-01-15T10:48:37;6.80;99.90
20773;DHT22;10546;50.674;4.616;2024-01-15T10:51:04;6.50;99.90
20773;DHT22;10546;50.674;4.616;2024-01-15T10:53:47;6.40;99.90
20773;DHT22;10546;50.674;4.616;2024-01-15T10:56:13;5.80;99.90
20773;DHT22;10546;50.674;4.616;2024-01-15T10:58:45;5.60;99.90
20773;DHT22;10546;50.674;4.616;2024-01-15T11:01:12;5.80;99.90
20773;DHT22;10546;50.674;4.616;2024-01-15T11:03:38;5.40;99.90
20773;DHT22;10546;50.674;4.616;2024-01-15T11:06:16;5.60;99.90
20773;DHT22;10546;50.674;4.616;2024-01-15T11:08:48;5.80;99.90
20773;DHT22;10546;50.674;4.616;2024-01-15T11:11:18;5.50;99.90
20773;DHT22;10546;50.674;4.616;2024-01-15T11:13:46;5.70;99.90
20773;DHT22;10546;50.674;4.616;2024-01-15T11:16:14;5.70;99.90
20773;DHT22;10546;50.674;4.616;2024-01-15T11:18:41;5.50;99.90
20773;DHT22;10546;50.674;4.616;2024-01-15T11:26:45;5.90;99.90
20773;DHT22;10546;50.674;4.616;2024-01-15T11:29:32;6.20;99.90
20773;DHT22;10546;50.674;4.616;2024-01-15T11:32:09;5.90;99.90
20773;DHT22;10546;50.674;4.616;2024-01-15T11:34:52;5.80;99.90
20773;DHT22;10546;50.674;4.616;2024-01-15T11:37:20;5.80;99.90
20773;DHT22;10546;50.674;4.616;2024-01-15T11:39:52;6.00;99.90
20773;DHT22;10546;50.674;4.616;2024-01-15T11:42:21;6.50;99.90
20773;DHT22;10546;50.674;4.616;2024-01-15T11:44:50;6.60;99.90
20773;DHT22;10546;50.674;4.616;2024-01-15T11:50:17;6.00;99.90
20773;DHT22;10546;50.674;4.616;2024-01-15T11:52:51;5.90;99.90
20773;DHT22;10546;50.674;4.616;2024-01-15T11:55:32;6.20;99.90
20773;DHT22;10546;50.674;4.616;2024-01-15T11:58:02;7.10;99.90
20773;DHT22;10546;50.674;4.616;2024-01-15T12:00:33;7.90;99.90
20773;DHT22;10546;50.674;4.616;2024-01-15T12:02:58;7.90;99.90
20773;DHT22;10546;50.674;4.616;2024-01-15T12:05:24;7.50;99.90
20773;DHT22;10546;50.674;4.616;2024-01-15T12:07:50;7.50;99.90
20773;DHT22;10546;50.674;4.616;2024-01-15T12:10:19;7.10;99.90
20773;DHT22;10546;50.674;4.616;2024-01-15T12:13:00;7.10;99.90
20773;DHT22;10546;50.674;4.616;2024-01-15T12:15:38;7.20;99.90
20773;DHT22;10546;50.674;4.616;2024-01-15T12:18:09;7.20;99.90
20773;DHT22;10546;50.674;4.616;2024-01-15T12:20:36;6.80;99.90
20773;DHT22;10546;50.674;4.616;2024-01-15T12:23:02;6.60;99.90
20773;DHT22;10546;50.674;4.616;2024-01-15T12:25:34;6.30;99.90
20773;DHT22;10546;50.674;4.616;2024-01-15T12:28:01;6.30;99.90
20773;DHT22;10546;50.674;4.616;2024-01-15T12:30:28;6.50;99.90
20773;DHT22;10546;50.674;4.616;2024-01-15T12:32:54;6.40;99.90
20773;DHT22;10546;50.674;4.616;2024-01-15T12:35:20;6.20;99.90
20773;DHT22;10546;50.674;4.616;2024-01-15T12:37:46;5.80;99.90
20773;DHT22;10546;50.674;4.616;2024-01-15T12:40:13;5.80;99.90
20773;DHT22;10546;50.674;4.616;2024-01-15T12:42:44;5.80;99.90
20773;DHT22;10546;50.674;4.616;2024-01-15T12:45:12;5.80;99.90
20773;DHT22;10546;50.674;4.616;2024-01-15T12:47:41;5.90;99.90
20773;DHT22;10546;50.674;4.616;2024-01-15T12:50:09;5.70;99.90
20773;DHT22;10546;50.674;4.616;2024-01-15T12:52:35;5.60;99.90
20773;DHT22;10546;50.674;4.616;2024-01-15T12:55:06;5.70;99.90
20773;DHT22;10546;50.674;4.616;2024-01-15T12:57:32;5.60;99.90
20773;DHT22;10546;50.674;4.616;2024-01-15T12:59:58;5.60;99.90
20773;DHT22;10546;50.674;4.616;2024-01-15T13:02:24;5.50;99.90
20773;DHT22;10546;50.674;4.616;2024-01-15T13:04:49;5.40;99.90
20773;DHT22;10546;50.674;4.616;2024-01-15T13:07:15;5.40;99.90
20773;DHT22;10546;50.674;4.616;2024-01-15T13:09:41;5.40;99.90
20773;DHT22;10546;50.674;4.616;2024-01-15T13:12:06;5.50;99.90
20773;DHT22;10546;50.674;4.616;2024-01-15T13:14:32;5.50;99.90
20773;DHT22;10546;50.674;4.616;2024-01-15T13:16:59;5.30;99.90
20773;DHT22;10546;50.674;4.616;2024-01-15T13:19:25;5.10;99.90
20773;DHT22;10546;50.674;4.616;2024-01-15T13:21:51;5.00;99.90
20773;DHT22;10546;50.674;4.616;2024-01-15T13:24:19;4.60;99.90
20773;DHT22;10546;50.674;4.616;2024-01-15T13:26:44;4.50;99.90
20773;DHT22;10546;50.674;4.616;2024-01-15T13:29:10;4.50;99.90
20773;DHT22;10546;50.674;4.616;2024-01-15T13:31:36;4.50;99.90
20773;DHT22;10546;50.674;4.616;2024-01-15T13:34:03;4.30;99.90
20773;DHT22;10546;50.674;4.616;2024-01-15T13:36:29;4.30;99.90
20773;DHT22;10546;50.674;4.616;2024-01-15T13:38:54;4.10;99.90
20773;DHT22;10546;50.674;4.616;2024-01-15T13:41:21;4.00;99.90
20773;DHT22;10546;50.674;4.616;2024-01-15T13:43:51;3.90;99.90
20773;DHT22;10546;50.674;4.616;2024-01-15T13:46:18;3.80;99.90
20773;DHT22;10546;50.674;4.616;2024-01-15T13:48:44;3.90;99.90
20773;DHT22;10546;50.674;4.616;2024-01-15T13:51:10;3.90;99.90
20773;DHT22;10546;50.674;4.616;2024-01-15T13:53:38;4.00;99.90
20773;DHT22;10546;50.674;4.616;2024-01-15T13:56:04;4.00;99.90
20773;DHT22;10546;50.674;4.616;2024-01-15T13:58:31;4.10;99.90
20773;DHT22;10546;50.674;4.616;2024-01-15T14:00:57;4.10;99.90
20773;DHT22;10546;50.674;4.616;2024-01-15T14:03:22;4.10;99.90
20773;DHT22;10546;50.674;4.616;2024-01-15T14:05:48;4.10;99.90
20773;DHT22;10546;50.674;4.616;2024-01-15T14:08:14;4.20;99.90
20773;DHT22;10546;50.674;4.616;2024-01-15T14:10:40;4.10;99.90
20773;DHT22;10546;50.674;4.616;2024-01-15T14:13:05;4.10;99.90
20773;DHT22;10546;50.674;4.616;2024-01-15T14:15:31;4.10;99.90
20773;DHT22;10546;50.674;4.616;2024-01-15T14:17:57;4.10;99.90
20773;DHT22;10546;50.674;4.616;2024-01-15T14:20:23;4.20;99.90
20773;DHT22;10546;50.674;4.616;2024-01-15T14:22:49;4.30;99.90
20773;DHT22;10546;50.674;4.616;2024-01-15T14:25:14;4.30;99.90
20773;DHT22;10546;50.674;4.616;2024-01-15T14:27:40;4.10;99.90
20773;DHT22;10546;50.674;4.616;2024-01-15T14:30:06;4.10;99.90
20773;DHT22;10546;50.674;4.616;2024-01-15T14:32:34;4.00;99.90
20773;DHT22;10546;50.674;4.616;2024-01-15T14:34:59;4.00;99.90
20773;DHT22;10546;50.674;4.616;2024-01-15T14:37:25;4.00;99.90
20773;DHT22;10546;50.674;4.616;2024-01-15T14:39:51;3.90;99.90
20773;DHT22;10546;50.674;4.616;2024-01-15T14:42:17;3.70;99.90
20773;DHT22;10546;50.674;4.616;2024-01-15T14:44:43;3.60;99.90
20773;DHT22;10546;50.674;4.616;2024-01-15T14:47:08;3.60;99.90
20773;DHT22;10546;50.674;4.616;2024-01-15T14:49:34;3.40;99.90
20773;DHT22;10546;50.674;4.616;2024-01-15T14:52:00;3.30;99.90
20773;DHT22;10546;50.674;4.616;2024-01-15T14:54:26;3.40;99.90
20773;DHT22;10546;50.674;4.616;2024-01-15T14:56:52;3.40;99.90
20773;DHT22;10546;50.674;4.616;2024-01-15T14:59:17;3.30;99.90
20773;DHT22;10546;50.674;4.616;2024-01-15T15:01:43;3.30;99.90
20773;DHT22;10546;50.674;4.616;2024-01-15T15:04:09;3.20;99.90
20773;DHT22;10546;50.674;4.616;2024-01-15T15:06:36;3.20;99.90
20773;DHT22;10546;50.674;4.616;2024-01-15T15:09:03;3.10;99.90
20773;DHT22;10546;50.674;4.616;2024-01-15T15:11:34;3.00;99.90
20773;DHT22;10546;50.674;4.616;2024-01-15T15:14:00;2.90;99.90
20773;DHT22;10546;50.674;4.616;2024-01-15T15:16:26;2.80;99.90
20773;DHT22;10546;50.674;4.616;2024-01-15T15:18:53;2.70;99.90
20773;DHT22;10546;50.674;4.616;2024-01-15T15:21:18;2.80;99.90
20773;DHT22;10546;50.674;4.616;2024-01-15T15:23:44;2.70;99.90
20773;DHT22;10546;50.674;4.616;2024-01-15T15:26:10;2.70;99.90
20773;DHT22;10546;50.674;4.616;2024-01-15T15:29:05;2.80;99.90
20773;DHT22;10546;50.674;4.616;2024-01-15T15:31:36;2.70;99.90
20773;DHT22;10546;50.674;4.616;2024-01-15T15:34:02;2.80;99.90
20773;DHT22;10546;50.674;4.616;2024-01-15T15:36:30;2.70;99.90
20773;DHT22;10546;50.674;4.616;2024-01-15T15:38:56;2.70;99.90
20773;DHT22;10546;50.674;4.616;2024-01-15T15:41:23;2.70;99.90
20773;DHT22;10546;50.674;4.616;2024-01-15T15:43:51;2.60;99.90
20773;DHT22;10546;50.674;4.616;2024-01-15T15:46:17;2.50;99.90
20773;DHT22;10546;50.674;4.616;2024-01-15T15:48:42;2.40;99.90
20773;DHT22;10546;50.674;4.616;2024-01-15T15:51:09;2.40;99.90
20773;DHT22;10546;50.674;4.616;2024-01-15T15:53:34;2.30;99.90
20773;DHT22;10546;50.674;4.616;2024-01-15T15:56:00;2.20;99.90
20773;DHT22;10546;50.674;4.616;2024-01-15T15:58:26;2.20;99.90
20773;DHT22;10546;50.674;4.616;2024-01-15T16:00:52;2.30;99.90
20773;DHT22;10546;50.674;4.616;2024-01-15T16:03:18;2.30;99.90
20773;DHT22;10546;50.674;4.616;2024-01-15T16:05:43;2.30;99.90
20773;DHT22;10546;50.674;4.616;2024-01-15T16:08:09;2.10;99.90
20773;DHT22;10546;50.674;4.616;2024-01-15T16:10:35;2.10;99.90
20773;DHT22;10546;50.674;4.616;2024-01-15T16:13:01;1.90;99.90
20773;DHT22;10546;50.674;4.616;2024-01-15T16:15:26;1.90;99.90
20773;DHT22;10546;50.674;4.616;2024-01-15T16:17:53;1.90;99.90
20773;DHT22;10546;50.674;4.616;2024-01-15T16:20:20;1.90;99.90
20773;DHT22;10546;50.674;4.616;2024-01-15T16:22:46;2.00;99.90
20773;DHT22;10546;50.674;4.616;2024-01-15T16:25:12;2.00;99.90
20773;DHT22;10546;50.674;4.616;2024-01-15T16:27:38;1.90;99.90
20773;DHT22;10546;50.674;4.616;2024-01-15T16:30:11;1.70;99.90
20773;DHT22;10546;50.674;4.616;2024-01-15T16:32:38;1.80;99.90
20773;DHT22;10546;50.674;4.616;2024-01-15T16:35:04;1.80;99.90
20773;DHT22;10546;50.674;4.616;2024-01-15T16:37:30;1.70;99.90
20773;DHT22;10546;50.674;4.616;2024-01-15T16:39:56;1.80;99.90
20773;DHT22;10546;50.674;4.616;2024-01-15T16:42:22;1.60;99.90
20773;DHT22;10546;50.674;4.616;2024-01-15T16:44:48;1.50;99.90
20773;DHT22;10546;50.674;4.616;2024-01-15T16:47:13;1.50;99.90
20773;DHT22;10546;50.674;4.616;2024-01-15T16:49:39;1.70;99.90
20773;DHT22;10546;50.674;4.616;2024-01-15T16:52:05;1.60;99.90
20773;DHT22;10546;50.674;4.616;2024-01-15T16:54:32;1.70;99.90
20773;DHT22;10546;50.674;4.616;2024-01-15T16:56:59;1.60;99.90
20773;DHT22;10546;50.674;4.616;2024-01-15T16:59:24;1.50;99.90
20773;DHT22;10546;50.674;4.616;2024-01-15T17:01:50;1.40;99.90
20773;DHT22;10546;50.674;4.616;2024-01-15T17:04:16;1.40;99.90
20773;DHT22;10546;50.674;4.616;2024-01-15T17:06:41;1.50;99.90
20773;DHT22;10546;50.674;4.616;2024-01-15T17:09:07;1.50;99.90
20773;DHT22;10546;50.674;4.616;2024-01-15T17:11:33;1.70;99.90
20773;DHT22;10546;50.674;4.616;2024-01-15T17:13:59;1.50;99.90
20773;DHT22;10546;50.674;4.616;2024-01-15T17:16:25;1.60;99.90
20773;DHT22;10546;50.674;4.616;2024-01-15T17:18:51;1.60;99.90
20773;DHT22;10546;50.674;4.616;2024-01-15T17:21:17;1.50;99.90
20773;DHT22;10546;50.674;4.616;2024-01-15T17:23:42;1.70;99.90
20773;DHT22;10546;50.674;4.616;2024-01-15T17:26:08;1.60;99.90
20773;DHT22;10546;50.674;4.616;2024-01-15T17:28:34;1.70;99.90
20773;DHT22;10546;50.674;4.616;2024-01-15T17:30:59;1.80;99.90
20773;DHT22;10546;50.674;4.616;2024-01-15T17:33:25;1.80;99.90
20773;DHT22;10546;50.674;4.616;2024-01-15T17:35:55;1.80;99.90
20773;DHT22;10546;50.674;4.616;2024-01-15T17:38:25;1.90;99.90
20773;DHT22;10546;50.674;4.616;2024-01-15T17:40:51;1.90;99.90
20773;DHT22;10546;50.674;4.616;2024-01-15T17:43:17;1.90;99.90
20773;DHT22;10546;50.674;4.616;2024-01-15T17:45:44;1.90;99.90
20773;DHT22;10546;50.674;4.616;2024-01-15T17:48:10;1.80;99.90
20773;DHT22;10546;50.674;4.616;2024-01-15T17:50:36;1.90;99.90
20773;DHT22;10546;50.674;4.616;2024-01-15T17:53:02;1.80;99.90
20773;DHT22;10546;50.674;4.616;2024-01-15T17:55:27;1.60;99.90
20773;DHT22;10546;50.674;4.616;2024-01-15T17:57:54;1.60;99.90
20773;DHT22;10546;50.674;4.616;2024-01-15T18:00:21;1.50;99.90
20773;DHT22;10546;50.674;4.616;2024-01-15T18:02:46;1.50;99.90
20773;DHT22;10546;50.674;4.616;2024-01-15T18:05:13;1.40;99.90
20773;DHT22;10546;50.674;4.616;2024-01-15T18:07:39;1.50;99.90
20773;DHT22;10546;50.674;4.616;2024-01-15T18:10:06;1.40;99.90
20773;DHT22;10546;50.674;4.616;2024-01-15T18:12:32;1.40;99.90
20773;DHT22;10546;50.674;4.616;2024-01-15T18:14:59;1.40;99.90
20773;DHT22;10546;50.674;4.616;2024-01-15T18:17:25;1.40;99.90
20773;DHT22;10546;50.674;4.616;2024-01-15T18:19:52;1.30;99.90
20773;DHT22;10546;50.674;4.616;2024-01-15T18:22:18;1.20;99.90
20773;DHT22;10546;50.674;4.616;2024-01-15T18:24:44;1.30;99.90
20773;DHT22;10546;50.674;4.616;2024-01-15T18:27:11;1.30;99.90
20773;DHT22;10546;50.674;4.616;2024-01-15T18:29:37;1.10;99.90
20773;DHT22;10546;50.674;4.616;2024-01-15T18:32:03;1.40;99.90
20773;DHT22;10546;50.674;4.616;2024-01-15T18:34:29;1.50;99.90
20773;DHT22;10546;50.674;4.616;2024-01-15T18:36:54;1.60;99.90
20773;DHT22;10546;50.674;4.616;2024-01-15T18:39:20;1.60;99.90
20773;DHT22;10546;50.674;4.616;2024-01-15T18:41:46;1.50;99.90
20773;DHT22;10546;50.674;4.616;2024-01-15T18:44:11;1.60;99.90
20773;DHT22;10546;50.674;4.616;2024-01-15T18:46:37;1.50;99.90
20773;DHT22;10546;50.674;4.616;2024-01-15T18:49:08;1.50;99.90
20773;DHT22;10546;50.674;4.616;2024-01-15T18:51:37;1.50;99.90
20773;DHT22;10546;50.674;4.616;2024-01-15T18:54:02;1.60;99.90
20773;DHT22;10546;50.674;4.616;2024-01-15T18:56:29;1.70;99.90
20773;DHT22;10546;50.674;4.616;2024-01-15T18:58:56;1.70;99.90
20773;DHT22;10546;50.674;4.616;2024-01-15T19:01:30;1.60;99.90
20773;DHT22;10546;50.674;4.616;2024-01-15T19:03:57;1.50;99.90
20773;DHT22;10546;50.674;4.616;2024-01-15T19:06:23;1.50;99.90
20773;DHT22;10546;50.674;4.616;2024-01-15T19:08:50;1.50;99.90
20773;DHT22;10546;50.674;4.616;2024-01-15T19:11:21;1.40;99.90
20773;DHT22;10546;50.674;4.616;2024-01-15T19:14:06;1.30;99.90
20773;DHT22;10546;50.674;4.616;2024-01-15T19:16:41;1.30;99.90
20773;DHT22;10546;50.674;4.616;2024-01-15T19:19:33;1.20;99.90
20773;DHT22;10546;50.674;4.616;2024-01-15T19:22:15;1.20;99.90
20773;DHT22;10546;50.674;4.616;2024-01-15T19:24:41;1.30;99.90
20773;DHT22;10546;50.674;4.616;2024-01-15T19:27:10;1.10;99.90
20773;DHT22;10546;50.674;4.616;2024-01-15T19:29:42;1.00;99.90
20773;DHT22;10546;50.674;4.616;2024-01-15T19:32:07;1.00;99.90
20773;DHT22;10546;50.674;4.616;2024-01-15T19:34:33;1.10;99.90
20773;DHT22;10546;50.674;4.616;2024-01-15T19:36:59;1.00;99.90
20773;DHT22;10546;50.674;4.616;2024-01-15T19:39:24;1.00;99.90
20773;DHT22;10546;50.674;4.616;2024-01-15T19:41:51;1.00;99.90
20773;DHT22;10546;50.674;4.616;2024-01-15T19:44:18;1.00;99.90
20773;DHT22;10546;50.674;4.616;2024-01-15T19:46:43;1.00;99.90
20773;DHT22;10546;50.674;4.616;2024-01-15T19:49:09;1.10;99.90
20773;DHT22;10546;50.674;4.616;2024-01-15T19:51:37;0.90;99.90
20773;DHT22;10546;50.674;4.616;2024-01-15T19:54:03;1.00;99.90
20773;DHT22;10546;50.674;4.616;2024-01-15T19:56:29;1.00;99.90
20773;DHT22;10546;50.674;4.616;2024-01-15T19:58:55;1.20;99.90
20773;DHT22;10546;50.674;4.616;2024-01-15T20:01:21;1.10;99.90
20773;DHT22;10546;50.674;4.616;2024-01-15T20:04:13;1.30;99.90
20773;DHT22;10546;50.674;4.616;2024-01-15T20:06:42;1.30;99.90
20773;DHT22;10546;50.674;4.616;2024-01-15T20:09:24;1.30;99.90
20773;DHT22;10546;50.674;4.616;2024-01-15T20:12:10;1.20;99.90
20773;DHT22;10546;50.674;4.616;2024-01-15T20:14:37;1.20;99.90
20773;DHT22;10546;50.674;4.616;2024-01-15T20:17:10;1.30;99.90
20773;DHT22;10546;50.674;4.616;2024-01-15T20:19:51;1.20;99.90
20773;DHT22;10546;50.674;4.616;2024-01-15T20:22:18;1.20;99.90
20773;DHT22;10546;50.674;4.616;2024-01-15T20:24:44;1.10;99.90
20773;DHT22;10546;50.674;4.616;2024-01-15T20:27:09;1.20;99.90
20773;DHT22;10546;50.674;4.616;2024-01-15T20:29:46;1.10;99.90
20773;DHT22;10546;50.674;4.616;2024-01-15T20:32:15;1.20;99.90
20773;DHT22;10546;50.674;4.616;2024-01-15T20:34:53;1.20;99.90
20773;DHT22;10546;50.674;4.616;2024-01-15T20:37:19;1.40;99.90
20773;DHT22;10546;50.674;4.616;2024-01-15T20:39:46;1.30;99.90
20773;DHT22;10546;50.674;4.616;2024-01-15T20:42:12;1.40;99.90
20773;DHT22;10546;50.674;4.616;2024-01-15T20:44:38;1.40;99.90
20773;DHT22;10546;50.674;4.616;2024-01-15T20:47:17;1.40;99.90
20773;DHT22;10546;50.674;4.616;2024-01-15T20:49:59;1.40;99.90
20773;DHT22;10546;50.674;4.616;2024-01-15T20:52:31;1.50;99.90
20773;DHT22;10546;50.674;4.616;2024-01-15T20:55:07;1.40;99.90
20773;DHT22;10546;50.674;4.616;2024-01-15T20:57:40;1.40;99.90
20773;DHT22;10546;50.674;4.616;2024-01-15T21:00:08;1.50;99.90
20773;DHT22;10546;50.674;4.616;2024-01-15T21:02:43;1.50;99.90
20773;DHT22;10546;50.674;4.616;2024-01-15T21:05:13;1.60;99.90
20773;DHT22;10546;50.674;4.616;2024-01-15T21:07:56;1.60;99.90
20773;DHT22;10546;50.674;4.616;2024-01-15T21:10:31;1.50;99.90
20773;DHT22;10546;50.674;4.616;2024-01-15T21:13:25;1.60;99.90
20773;DHT22;10546;50.674;4.616;2024-01-15T21:15:56;1.60;99.90
20773;DHT22;10546;50.674;4.616;2024-01-15T21:18:24;1.60;99.90
20773;DHT22;10546;50.674;4.616;2024-01-15T21:21:04;1.60;99.90
20773;DHT22;10546;50.674;4.616;2024-01-15T21:23:33;1.50;99.90
20773;DHT22;10546;50.674;4.616;2024-01-15T21:26:04;1.60;99.90
20773;DHT22;10546;50.674;4.616;2024-01-15T21:28:31;1.50;99.90
20773;DHT22;10546;50.674;4.616;2024-01-15T21:31:05;1.50;99.90
20773;DHT22;10546;50.674;4.616;2024-01-15T21:33:38;1.50;99.90
20773;DHT22;10546;50.674;4.616;2024-01-15T21:36:07;1.40;99.90
20773;DHT22;10546;50.674;4.616;2024-01-15T21:38:34;1.40;99.90
20773;DHT22;10546;50.674;4.616;2024-01-15T21:41:03;1.60;99.90
20773;DHT22;10546;50.674;4.616;2024-01-15T21:43:34;1.50;99.90
20773;DHT22;10546;50.674;4.616;2024-01-15T21:46:06;1.60;99.90
20773;DHT22;10546;50.674;4.616;2024-01-15T21:48:38;1.30;99.90
20773;DHT22;10546;50.674;4.616;2024-01-15T21:51:14;1.30;99.90
20773;DHT22;10546;50.674;4.616;2024-01-15T21:53:44;1.30;99.90
20773;DHT22;10546;50.674;4.616;2024-01-15T21:56:45;1.30;99.90
20773;DHT22;10546;50.674;4.616;2024-01-15T21:59:36;1.30;99.90
20773;DHT22;10546;50.674;4.616;2024-01-15T22:02:16;1.40;99.90
20773;DHT22;10546;50.674;4.616;2024-01-15T22:04:43;1.50;99.90
20773;DHT22;10546;50.674;4.616;2024-01-15T22:07:10;1.60;99.90